Nearby METAR Reports

 

KSJC - San Jose, California, USA
Distance from station: NE 9mi, 14km
Updated: Sat, 20-Oct-2018 12:53pm MDT
Haze, Few clouds
Haze, Few clouds
 Wind from NW
Wind: NW 7 mph , 11 km/h
Temperature: 66°F , 19°C
Dew Point: 54°F , 12°C
Humidity: 64%
Barometer: 30.01 inHg , 1016.3 hPa
Summary: Haze
Clouds: Few Clouds
Visibility: 5 miles , 8 km
Cloud details: Few Clouds 100 ft
2018/10/20 18:53 KSJC 201853Z 32006KT 5SM HZ FEW001 19/12 A3001 RMK AO2 SLP163 T01940122
KNUQ - Moffett Nas/Mtn, California, USA
Distance from station: N 9mi, 14km
Updated: Sat, 20-Oct-2018 12:56pm MDT
Clear
Clear
 Wind from N
Wind: N 8 mph , 13 km/h
Temperature: 64°F , 18°C
Dew Point: 55°F , 13°C
Humidity: 73%
Barometer: 30.02 inHg , 1016.6 hPa
Clouds: Clear
Visibility: 6 miles , 10 km
2018/10/20 18:56 KNUQ 201856Z 36007KT 6SM CLR 18/13 A3002 RMK AO2 SLP169 T01780133
KPAO - Palo Alto, California, USA
Distance from station: NNW 14mi, 23km
Updated: Sat, 20-Oct-2018 1:47pm MDT
Haze, Clear
Haze, Clear
 Wind from N
Wind: N 12 mph , 19 km/h
Temperature: 64°F , 18°C
Dew Point: 57°F , 14°C
Humidity: 78%
Barometer: 30.01 inHg , 1016.3 hPa
Summary: Haze
Clouds: Clear
Visibility: 10 miles , 16 km
2018/10/20 19:47 KPAO 201947Z 35010KT 10SM HZ SKC 18/14 A3001
 
KRHV - San Jose/Reid, California, USA
Distance from station: ENE 12mi, 19km
Updated: Sat, 20-Oct-2018 1:47pm MDT
Clear
Clear
 Wind from WNW
Wind: WNW 10 mph , 17 km/h
Temperature: 75°F , 24°C
Dew Point: 54°F , 12°C
Humidity: 47%
Barometer: 29.97 inHg , 1014.9 hPa
Clouds: Clear
Visibility: 10 miles , 16 km
2018/10/20 19:47 KRHV 201947Z 30009KT 10SM SKC 24/12 A2997
KOAK - Oakland, California, USA
Distance from station: NNW 31mi, 50km
Updated: Sat, 20-Oct-2018 12:53pm MDT
Few Clouds
Few Clouds
 Wind from W
Wind: W 8 mph , 13 km/h
Temperature: 63°F , 17°C
Dew Point: 54°F , 12°C
Humidity: 73%
Barometer: 30.02 inHg , 1016.6 hPa
Clouds: Few Clouds
Visibility: 7 miles , 11 km
Cloud details: Few Clouds 600 ft
2018/10/20 18:53 KOAK 201853Z 26007KT 7SM FEW006 17/12 A3002 RMK AO2 SLP167 T01670122
KSQL - San Carlos Airpo, California, USA
Distance from station: NW 21mi, 34km
Updated: Sat, 20-Oct-2018 1:47pm MDT
Haze
Haze
 Wind from N
Wind: N 6 mph , 9 km/h
Temperature: 64°F , 18°C
Dew Point: 55°F , 13°C
Humidity: 73%
Barometer: 30.00 inHg , 1015.9 hPa
Summary: Haze
Visibility: 8 miles , 13 km
2018/10/20 19:47 KSQL 201947Z 36005KT 8SM HZ 18/13 A3000
 
KSFO - San Francisco, California, USA
Distance from station: NW 30mi, 49km
Updated: Sat, 20-Oct-2018 12:56pm MDT
Few Clouds
Few Clouds
 Wind from NW
Wind: NW 8 mph , 13 km/h
Temperature: 63°F , 17°C
Dew Point: 52°F , 11°C
Humidity: 68%
Barometer: 30.01 inHg , 1016.3 hPa
Clouds: Few Clouds
Visibility: 10 miles , 16 km
Cloud details: Few Clouds 800 ft
2018/10/20 18:56 KSFO 201856Z 31007KT 10SM FEW008 17/11 A3001 RMK AO2 SLP163 T01720111
KE16 - San Martin, California, USA
Distance from station: ESE 27mi, 43km
Updated: Sat, 20-Oct-2018 1:00pm MDT
Clear
Clear
 Wind from calm
Wind: Calm
Temperature: 75°F , 24°C
Dew Point: 41°F , 5°C
Humidity: 29%
Barometer: 30.02 inHg , 1016.6 hPa
Clouds: Clear
Visibility: 10 miles , 16 km
2018/10/20 19:00 KE16 201900Z AUTO 00000KT 10SM CLR 24/05 A3002 RMK AO2
KWVI - Watsonville, California, USA
Distance from station: SSE 27mi, 44km
Updated: Sat, 20-Oct-2018 12:53pm MDT
Clear
Clear
 Wind from S
Wind: S 3 mph , 6 km/h
Temperature: 73°F , 23°C
Dew Point: 48°F , 9°C
Humidity: 41%
Barometer: 30.01 inHg , 1016.3 hPa
Clouds: Clear
Visibility: 10 miles , 16 km
2018/10/20 18:53 KWVI 201853Z AUTO 18003KT 10SM CLR 23/09 A3001 RMK AO2 SLP160 T02280089
 
KHAF - Half Moon Bay, California, USA
Distance from station: WNW 31mi, 50km
Updated: Wed, 03-Oct-2018 2:40pm MDT
NOT Current
Haze, Mostly cloudy
Haze, Mostly cloudy
 Wind from S
Wind: S 5 mph , 7 km/h
Temperature: 64°F , 18°C
Dew Point: 59°F , 15°C
Humidity: 83%
Barometer: 29.92 inHg , 1013.2 hPa
Summary: Haze
Clouds: Mostly cloudy
Visibility: 4 miles , 6 km
Cloud details: Few Clouds 2100 ft
Mostly cloudy 3000 ft
2018/10/03 20:40 KHAF 032040Z AUTO 19004KT 4SM HZ FEW021 BKN030 18/15 A2992 RMK AO2
KHWD - Hayward, California, USA
Distance from station: N 28mi, 44km
Updated: Sat, 20-Oct-2018 12:54pm MDT
Haze, Clear
Haze, Clear
 Wind from varies
Wind: varies 6 mph , 9 km/h
Temperature: 66°F , 19°C
Dew Point: 55°F , 13°C
Humidity: 68%
Barometer: 30.02 inHg , 1016.6 hPa
Summary: Haze
Clouds: Clear
Visibility: 6 miles , 10 km
2018/10/20 18:54 KHWD 201854Z VRB05KT 6SM HZ CLR 19/13 A3002 RMK AO2 SLP173 T01940128
KLVK - Livermore, California, USA
Distance from station: NNE 31mi, 51km
Updated: Sat, 20-Oct-2018 12:53pm MDT
Clear
Clear
 Wind from SW
Wind: SW 5 mph , 7 km/h
Temperature: 73°F , 23°C
Dew Point: 43°F , 6°C
Humidity: 33%
Barometer: 30.00 inHg , 1015.9 hPa
Clouds: Clear
Visibility: 10 miles , 16 km
2018/10/20 18:53 KLVK 201853Z 23004KT 10SM CLR 23/06 A3000 RMK AO2 SLP155 T02330056